sensor_id;sensor_type;location;lat;lon;timestamp;P1;durP1;ratioP1;P2;durP2;ratioP2
19519;SDS011;9904;52.246;20.898;2023-02-27T00:00:39;10.57;;;4.10;;
19519;SDS011;9904;52.246;20.898;2023-02-27T00:03:06;10.53;;;4.03;;
19519;SDS011;9904;52.246;20.898;2023-02-27T00:05:32;12.17;;;4.00;;
19519;SDS011;9904;52.246;20.898;2023-02-27T00:07:59;9.07;;;3.70;;
19519;SDS011;9904;52.246;20.898;2023-02-27T00:10:25;13.80;;;4.50;;
19519;SDS011;9904;52.246;20.898;2023-02-27T00:12:52;16.83;;;4.70;;
19519;SDS011;9904;52.246;20.898;2023-02-27T00:15:18;12.67;;;4.27;;
19519;SDS011;9904;52.246;20.898;2023-02-27T00:17:45;17.00;;;4.60;;
19519;SDS011;9904;52.246;20.898;2023-02-27T00:20:13;14.10;;;4.60;;
19519;SDS011;9904;52.246;20.898;2023-02-27T00:22:41;12.57;;;3.93;;
19519;SDS011;9904;52.246;20.898;2023-02-27T00:25:08;14.93;;;4.87;;
19519;SDS011;9904;52.246;20.898;2023-02-27T00:27:35;10.37;;;4.03;;
19519;SDS011;9904;52.246;20.898;2023-02-27T00:30:03;14.70;;;4.20;;
19519;SDS011;9904;52.246;20.898;2023-02-27T00:32:30;14.63;;;4.77;;
19519;SDS011;9904;52.246;20.898;2023-02-27T00:34:57;10.17;;;3.60;;
19519;SDS011;9904;52.246;20.898;2023-02-27T00:37:23;12.13;;;4.53;;
19519;SDS011;9904;52.246;20.898;2023-02-27T00:39:50;12.37;;;4.10;;
19519;SDS011;9904;52.246;20.898;2023-02-27T00:42:16;12.30;;;4.20;;
19519;SDS011;9904;52.246;20.898;2023-02-27T00:44:43;12.30;;;4.03;;
19519;SDS011;9904;52.246;20.898;2023-02-27T00:47:09;11.87;;;3.97;;
19519;SDS011;9904;52.246;20.898;2023-02-27T00:49:36;8.40;;;3.83;;
19519;SDS011;9904;52.246;20.898;2023-02-27T00:52:02;7.93;;;3.40;;
19519;SDS011;9904;52.246;20.898;2023-02-27T00:54:29;9.80;;;4.03;;
19519;SDS011;9904;52.246;20.898;2023-02-27T00:56:56;14.63;;;4.73;;
19519;SDS011;9904;52.246;20.898;2023-02-27T00:59:22;11.03;;;3.40;;
19519;SDS011;9904;52.246;20.898;2023-02-27T01:01:49;13.67;;;4.00;;
19519;SDS011;9904;52.246;20.898;2023-02-27T01:04:15;12.40;;;4.40;;
19519;SDS011;9904;52.246;20.898;2023-02-27T01:06:42;9.10;;;4.03;;
19519;SDS011;9904;52.246;20.898;2023-02-27T01:09:08;8.27;;;3.60;;
19519;SDS011;9904;52.246;20.898;2023-02-27T01:11:35;9.73;;;3.57;;
19519;SDS011;9904;52.246;20.898;2023-02-27T01:14:02;12.20;;;4.17;;
19519;SDS011;9904;52.246;20.898;2023-02-27T01:16:28;10.30;;;3.40;;
19519;SDS011;9904;52.246;20.898;2023-02-27T01:18:55;8.80;;;3.87;;
19519;SDS011;9904;52.246;20.898;2023-02-27T01:21:22;8.50;;;3.70;;
19519;SDS011;9904;52.246;20.898;2023-02-27T01:23:49;8.93;;;3.50;;
19519;SDS011;9904;52.246;20.898;2023-02-27T01:26:16;12.40;;;3.83;;
19519;SDS011;9904;52.246;20.898;2023-02-27T01:28:42;10.70;;;3.63;;
19519;SDS011;9904;52.246;20.898;2023-02-27T01:31:09;7.03;;;3.43;;
19519;SDS011;9904;52.246;20.898;2023-02-27T01:33:36;10.53;;;3.90;;
19519;SDS011;9904;52.246;20.898;2023-02-27T01:36:02;11.30;;;3.80;;
19519;SDS011;9904;52.246;20.898;2023-02-27T01:38:29;7.77;;;3.80;;
19519;SDS011;9904;52.246;20.898;2023-02-27T01:40:56;8.97;;;3.53;;
19519;SDS011;9904;52.246;20.898;2023-02-27T01:43:22;8.93;;;3.93;;
19519;SDS011;9904;52.246;20.898;2023-02-27T01:45:49;9.97;;;3.63;;
19519;SDS011;9904;52.246;20.898;2023-02-27T01:51:02;8.17;;;3.30;;
19519;SDS011;9904;52.246;20.898;2023-02-27T01:53:34;9.67;;;3.67;;
19519;SDS011;9904;52.246;20.898;2023-02-27T01:56:13;15.47;;;3.70;;
19519;SDS011;9904;52.246;20.898;2023-02-27T01:58:40;16.33;;;4.10;;
19519;SDS011;9904;52.246;20.898;2023-02-27T02:01:07;8.80;;;3.60;;
19519;SDS011;9904;52.246;20.898;2023-02-27T02:03:36;7.23;;;3.40;;
19519;SDS011;9904;52.246;20.898;2023-02-27T02:06:03;9.13;;;3.47;;
19519;SDS011;9904;52.246;20.898;2023-02-27T02:08:35;10.17;;;3.60;;
19519;SDS011;9904;52.246;20.898;2023-02-27T02:11:05;10.53;;;3.67;;
19519;SDS011;9904;52.246;20.898;2023-02-27T02:13:32;7.80;;;3.37;;
19519;SDS011;9904;52.246;20.898;2023-02-27T02:18:53;8.00;;;3.53;;
19519;SDS011;9904;52.246;20.898;2023-02-27T02:29:53;10.60;;;4.13;;
19519;SDS011;9904;52.246;20.898;2023-02-27T02:43:14;7.73;;;3.97;;
19519;SDS011;9904;52.246;20.898;2023-02-27T02:46:12;8.83;;;4.37;;
19519;SDS011;9904;52.246;20.898;2023-02-27T02:48:44;9.90;;;4.43;;
19519;SDS011;9904;52.246;20.898;2023-02-27T02:51:16;10.43;;;4.87;;
19519;SDS011;9904;52.246;20.898;2023-02-27T02:59:43;15.00;;;5.10;;
19519;SDS011;9904;52.246;20.898;2023-02-27T03:02:04;10.53;;;4.90;;
19519;SDS011;9904;52.246;20.898;2023-02-27T03:04:40;10.27;;;5.60;;
19519;SDS011;9904;52.246;20.898;2023-02-27T03:09:49;15.87;;;5.73;;
19519;SDS011;9904;52.246;20.898;2023-02-27T03:12:20;14.93;;;5.60;;
19519;SDS011;9904;52.246;20.898;2023-02-27T03:17:23;16.37;;;6.90;;
19519;SDS011;9904;52.246;20.898;2023-02-27T03:20:18;13.10;;;6.03;;
19519;SDS011;9904;52.246;20.898;2023-02-27T03:22:48;13.77;;;6.43;;
19519;SDS011;9904;52.246;20.898;2023-02-27T03:25:17;13.30;;;6.20;;
19519;SDS011;9904;52.246;20.898;2023-02-27T03:27:48;10.87;;;6.33;;
19519;SDS011;9904;52.246;20.898;2023-02-27T03:32:54;16.47;;;6.30;;
19519;SDS011;9904;52.246;20.898;2023-02-27T03:35:23;10.73;;;5.60;;
19519;SDS011;9904;52.246;20.898;2023-02-27T03:38:05;16.03;;;5.70;;
19519;SDS011;9904;52.246;20.898;2023-02-27T03:40:35;11.43;;;5.70;;
19519;SDS011;9904;52.246;20.898;2023-02-27T03:45:53;16.47;;;5.90;;
19519;SDS011;9904;52.246;20.898;2023-02-27T03:48:25;11.67;;;5.97;;
19519;SDS011;9904;52.246;20.898;2023-02-27T03:50:51;13.60;;;6.10;;
19519;SDS011;9904;52.246;20.898;2023-02-27T03:53:29;13.00;;;5.70;;
19519;SDS011;9904;52.246;20.898;2023-02-27T03:55:59;12.77;;;5.53;;
19519;SDS011;9904;52.246;20.898;2023-02-27T03:58:26;12.07;;;5.67;;
19519;SDS011;9904;52.246;20.898;2023-02-27T04:00:53;11.20;;;5.47;;
19519;SDS011;9904;52.246;20.898;2023-02-27T04:03:20;10.53;;;5.70;;
19519;SDS011;9904;52.246;20.898;2023-02-27T04:05:47;9.97;;;5.23;;
19519;SDS011;9904;52.246;20.898;2023-02-27T04:08:30;11.67;;;5.70;;
19519;SDS011;9904;52.246;20.898;2023-02-27T04:11:25;11.73;;;6.00;;
19519;SDS011;9904;52.246;20.898;2023-02-27T04:27:39;11.10;;;4.90;;
19519;SDS011;9904;52.246;20.898;2023-02-27T04:30:23;12.27;;;4.90;;
19519;SDS011;9904;52.246;20.898;2023-02-27T04:32:56;9.70;;;4.73;;
19519;SDS011;9904;52.246;20.898;2023-02-27T04:38:13;9.30;;;4.60;;
19519;SDS011;9904;52.246;20.898;2023-02-27T04:41:04;13.10;;;5.37;;
19519;SDS011;9904;52.246;20.898;2023-02-27T04:43:33;13.00;;;4.57;;
19519;SDS011;9904;52.246;20.898;2023-02-27T04:46:01;11.97;;;5.20;;
19519;SDS011;9904;52.246;20.898;2023-02-27T04:48:29;12.43;;;5.00;;
19519;SDS011;9904;52.246;20.898;2023-02-27T04:51:02;11.80;;;4.33;;
19519;SDS011;9904;52.246;20.898;2023-02-27T04:53:46;13.00;;;4.63;;
19519;SDS011;9904;52.246;20.898;2023-02-27T04:56:16;6.83;;;4.30;;
19519;SDS011;9904;52.246;20.898;2023-02-27T04:58:47;9.20;;;4.37;;
19519;SDS011;9904;52.246;20.898;2023-02-27T05:01:18;8.83;;;4.00;;
19519;SDS011;9904;52.246;20.898;2023-02-27T05:03:48;11.70;;;3.97;;
19519;SDS011;9904;52.246;20.898;2023-02-27T05:06:17;9.93;;;3.70;;
19519;SDS011;9904;52.246;20.898;2023-02-27T05:08:49;13.33;;;4.30;;
19519;SDS011;9904;52.246;20.898;2023-02-27T05:14:01;10.03;;;4.40;;
19519;SDS011;9904;52.246;20.898;2023-02-27T05:16:35;8.17;;;3.97;;
19519;SDS011;9904;52.246;20.898;2023-02-27T05:19:04;8.03;;;3.43;;
19519;SDS011;9904;52.246;20.898;2023-02-27T05:21:35;7.57;;;3.73;;
19519;SDS011;9904;52.246;20.898;2023-02-27T05:27:01;5.27;;;3.20;;
19519;SDS011;9904;52.246;20.898;2023-02-27T05:29:35;7.57;;;3.20;;
19519;SDS011;9904;52.246;20.898;2023-02-27T05:35:00;12.23;;;3.77;;
19519;SDS011;9904;52.246;20.898;2023-02-27T05:37:38;8.50;;;3.00;;
19519;SDS011;9904;52.246;20.898;2023-02-27T05:40:10;10.37;;;3.23;;
19519;SDS011;9904;52.246;20.898;2023-02-27T05:42:42;10.57;;;3.77;;
19519;SDS011;9904;52.246;20.898;2023-02-27T05:45:12;6.47;;;2.90;;
19519;SDS011;9904;52.246;20.898;2023-02-27T05:47:44;7.50;;;2.83;;
19519;SDS011;9904;52.246;20.898;2023-02-27T05:50:21;5.73;;;2.80;;
19519;SDS011;9904;52.246;20.898;2023-02-27T05:52:50;5.80;;;2.60;;
19519;SDS011;9904;52.246;20.898;2023-02-27T05:55:22;10.60;;;3.00;;
19519;SDS011;9904;52.246;20.898;2023-02-27T06:01:00;7.07;;;2.47;;
19519;SDS011;9904;52.246;20.898;2023-02-27T06:03:37;8.77;;;2.53;;
19519;SDS011;9904;52.246;20.898;2023-02-27T06:06:06;5.13;;;2.00;;
19519;SDS011;9904;52.246;20.898;2023-02-27T06:08:34;5.83;;;2.80;;
19519;SDS011;9904;52.246;20.898;2023-02-27T06:11:01;6.37;;;1.90;;
19519;SDS011;9904;52.246;20.898;2023-02-27T06:13:28;6.37;;;2.10;;
19519;SDS011;9904;52.246;20.898;2023-02-27T06:15:54;5.57;;;2.10;;
19519;SDS011;9904;52.246;20.898;2023-02-27T06:18:22;5.53;;;1.90;;
19519;SDS011;9904;52.246;20.898;2023-02-27T06:20:49;11.90;;;2.00;;
19519;SDS011;9904;52.246;20.898;2023-02-27T06:23:16;2.63;;;1.13;;
19519;SDS011;9904;52.246;20.898;2023-02-27T06:25:42;4.30;;;1.23;;
19519;SDS011;9904;52.246;20.898;2023-02-27T06:28:09;3.20;;;1.30;;
19519;SDS011;9904;52.246;20.898;2023-02-27T06:30:36;3.07;;;1.13;;
19519;SDS011;9904;52.246;20.898;2023-02-27T06:33:03;3.67;;;1.10;;
19519;SDS011;9904;52.246;20.898;2023-02-27T06:35:30;5.10;;;1.27;;
19519;SDS011;9904;52.246;20.898;2023-02-27T06:37:57;5.13;;;1.20;;
19519;SDS011;9904;52.246;20.898;2023-02-27T06:40:24;5.57;;;1.80;;
19519;SDS011;9904;52.246;20.898;2023-02-27T06:42:51;3.77;;;1.23;;
19519;SDS011;9904;52.246;20.898;2023-02-27T06:45:17;2.10;;;1.03;;
19519;SDS011;9904;52.246;20.898;2023-02-27T06:47:44;4.07;;;0.90;;
19519;SDS011;9904;52.246;20.898;2023-02-27T06:50:11;3.87;;;1.10;;
19519;SDS011;9904;52.246;20.898;2023-02-27T06:52:39;5.30;;;1.23;;
19519;SDS011;9904;52.246;20.898;2023-02-27T06:55:06;5.30;;;1.17;;
19519;SDS011;9904;52.246;20.898;2023-02-27T06:57:34;4.20;;;1.30;;
19519;SDS011;9904;52.246;20.898;2023-02-27T07:00:01;2.60;;;1.20;;
19519;SDS011;9904;52.246;20.898;2023-02-27T07:02:29;5.27;;;1.40;;
19519;SDS011;9904;52.246;20.898;2023-02-27T07:04:56;4.27;;;1.20;;
19519;SDS011;9904;52.246;20.898;2023-02-27T07:07:23;2.93;;;1.13;;
19519;SDS011;9904;52.246;20.898;2023-02-27T07:10:01;4.07;;;1.60;;
19519;SDS011;9904;52.246;20.898;2023-02-27T07:12:28;2.97;;;1.20;;
19519;SDS011;9904;52.246;20.898;2023-02-27T07:14:55;3.33;;;1.20;;
19519;SDS011;9904;52.246;20.898;2023-02-27T07:17:25;3.33;;;1.00;;
19519;SDS011;9904;52.246;20.898;2023-02-27T07:19:52;2.73;;;1.00;;
19519;SDS011;9904;52.246;20.898;2023-02-27T07:22:19;1.67;;;1.00;;
19519;SDS011;9904;52.246;20.898;2023-02-27T07:24:46;3.53;;;1.13;;
19519;SDS011;9904;52.246;20.898;2023-02-27T07:27:13;9.70;;;1.30;;
19519;SDS011;9904;52.246;20.898;2023-02-27T07:29:39;3.17;;;1.03;;
19519;SDS011;9904;52.246;20.898;2023-02-27T07:32:06;2.23;;;0.80;;
19519;SDS011;9904;52.246;20.898;2023-02-27T07:34:33;2.97;;;1.20;;
19519;SDS011;9904;52.246;20.898;2023-02-27T07:37:00;5.40;;;1.30;;
19519;SDS011;9904;52.246;20.898;2023-02-27T07:39:26;4.53;;;1.20;;
19519;SDS011;9904;52.246;20.898;2023-02-27T07:41:53;3.23;;;1.40;;
19519;SDS011;9904;52.246;20.898;2023-02-27T07:44:22;4.67;;;1.10;;
19519;SDS011;9904;52.246;20.898;2023-02-27T07:46:49;3.83;;;1.30;;
19519;SDS011;9904;52.246;20.898;2023-02-27T07:49:16;3.73;;;1.10;;
19519;SDS011;9904;52.246;20.898;2023-02-27T07:51:43;2.37;;;1.00;;
19519;SDS011;9904;52.246;20.898;2023-02-27T07:54:10;2.83;;;1.30;;
19519;SDS011;9904;52.246;20.898;2023-02-27T07:56:37;4.23;;;1.50;;
19519;SDS011;9904;52.246;20.898;2023-02-27T07:59:04;3.30;;;1.27;;
19519;SDS011;9904;52.246;20.898;2023-02-27T08:01:31;4.40;;;1.20;;
19519;SDS011;9904;52.246;20.898;2023-02-27T08:03:58;3.37;;;1.03;;
19519;SDS011;9904;52.246;20.898;2023-02-27T08:06:24;4.30;;;1.10;;
19519;SDS011;9904;52.246;20.898;2023-02-27T08:08:51;1.70;;;0.73;;
19519;SDS011;9904;52.246;20.898;2023-02-27T08:11:18;3.83;;;1.00;;
19519;SDS011;9904;52.246;20.898;2023-02-27T08:13:45;2.47;;;1.17;;
19519;SDS011;9904;52.246;20.898;2023-02-27T08:16:28;3.57;;;1.20;;
19519;SDS011;9904;52.246;20.898;2023-02-27T08:18:56;4.80;;;0.90;;
19519;SDS011;9904;52.246;20.898;2023-02-27T08:21:23;2.50;;;0.87;;
19519;SDS011;9904;52.246;20.898;2023-02-27T08:23:51;3.00;;;1.00;;
19519;SDS011;9904;52.246;20.898;2023-02-27T08:26:18;1.37;;;0.70;;
19519;SDS011;9904;52.246;20.898;2023-02-27T08:28:44;2.63;;;0.90;;
19519;SDS011;9904;52.246;20.898;2023-02-27T08:31:11;3.97;;;0.90;;
19519;SDS011;9904;52.246;20.898;2023-02-27T08:33:38;1.77;;;0.97;;
19519;SDS011;9904;52.246;20.898;2023-02-27T08:36:05;4.07;;;0.90;;
19519;SDS011;9904;52.246;20.898;2023-02-27T08:38:33;1.77;;;0.93;;
19519;SDS011;9904;52.246;20.898;2023-02-27T08:41:00;1.03;;;0.60;;
19519;SDS011;9904;52.246;20.898;2023-02-27T08:43:26;7.93;;;1.17;;
19519;SDS011;9904;52.246;20.898;2023-02-27T08:45:53;1.77;;;0.77;;
19519;SDS011;9904;52.246;20.898;2023-02-27T08:48:20;2.43;;;0.93;;
19519;SDS011;9904;52.246;20.898;2023-02-27T08:50:49;1.70;;;0.60;;
19519;SDS011;9904;52.246;20.898;2023-02-27T11:37:26;2.00;;;1.00;;
19519;SDS011;9904;52.246;20.898;2023-02-27T11:42:46;3.80;;;1.30;;
19519;SDS011;9904;52.246;20.898;2023-02-27T11:48:22;3.03;;;1.30;;
19519;SDS011;9904;52.246;20.898;2023-02-27T11:51:23;2.77;;;1.20;;
19519;SDS011;9904;52.246;20.898;2023-02-27T11:57:09;2.60;;;1.30;;
19519;SDS011;9904;52.246;20.898;2023-02-27T12:05:40;5.83;;;1.30;;
19519;SDS011;9904;52.246;20.898;2023-02-27T12:08:15;9.53;;;1.30;;
19519;SDS011;9904;52.246;20.898;2023-02-27T12:13:39;4.43;;;1.40;;
19519;SDS011;9904;52.246;20.898;2023-02-27T12:19:03;3.23;;;1.20;;
19519;SDS011;9904;52.246;20.898;2023-02-27T12:21:37;5.37;;;1.23;;
19519;SDS011;9904;52.246;20.898;2023-02-27T12:24:22;1.60;;;0.87;;
19519;SDS011;9904;52.246;20.898;2023-02-27T12:27:12;3.40;;;1.20;;
19519;SDS011;9904;52.246;20.898;2023-02-27T12:29:52;2.83;;;1.00;;
19519;SDS011;9904;52.246;20.898;2023-02-27T12:32:23;2.63;;;1.10;;
19519;SDS011;9904;52.246;20.898;2023-02-27T12:37:42;2.67;;;1.27;;
19519;SDS011;9904;52.246;20.898;2023-02-27T12:40:12;2.93;;;1.40;;
19519;SDS011;9904;52.246;20.898;2023-02-27T12:42:45;3.00;;;1.20;;
19519;SDS011;9904;52.246;20.898;2023-02-27T12:45:44;3.87;;;1.10;;
19519;SDS011;9904;52.246;20.898;2023-02-27T12:51:29;2.03;;;1.03;;
19519;SDS011;9904;52.246;20.898;2023-02-27T12:54:09;7.17;;;1.43;;
19519;SDS011;9904;52.246;20.898;2023-02-27T12:59:58;2.87;;;1.40;;
19519;SDS011;9904;52.246;20.898;2023-02-27T13:05:12;2.87;;;1.43;;
19519;SDS011;9904;52.246;20.898;2023-02-27T13:07:50;2.47;;;1.40;;
19519;SDS011;9904;52.246;20.898;2023-02-27T13:13:21;3.83;;;1.47;;
19519;SDS011;9904;52.246;20.898;2023-02-27T13:16:05;3.63;;;1.53;;
19519;SDS011;9904;52.246;20.898;2023-02-27T13:18:52;2.60;;;1.30;;
19519;SDS011;9904;52.246;20.898;2023-02-27T13:21:26;4.03;;;1.50;;
19519;SDS011;9904;52.246;20.898;2023-02-27T13:23:57;3.37;;;1.17;;
19519;SDS011;9904;52.246;20.898;2023-02-27T13:26:42;4.10;;;1.73;;
19519;SDS011;9904;52.246;20.898;2023-02-27T13:29:13;3.97;;;1.47;;
19519;SDS011;9904;52.246;20.898;2023-02-27T13:31:43;3.83;;;1.70;;
19519;SDS011;9904;52.246;20.898;2023-02-27T13:37:06;3.17;;;1.33;;
19519;SDS011;9904;52.246;20.898;2023-02-27T13:44:56;4.90;;;1.30;;
19519;SDS011;9904;52.246;20.898;2023-02-27T13:49:57;5.17;;;1.77;;
19519;SDS011;9904;52.246;20.898;2023-02-27T13:52:28;4.27;;;1.50;;
19519;SDS011;9904;52.246;20.898;2023-02-27T13:54:55;4.53;;;1.80;;
19519;SDS011;9904;52.246;20.898;2023-02-27T13:57:36;8.43;;;1.87;;
19519;SDS011;9904;52.246;20.898;2023-02-27T14:00:23;3.97;;;1.80;;
19519;SDS011;9904;52.246;20.898;2023-02-27T14:02:58;2.30;;;1.43;;
19519;SDS011;9904;52.246;20.898;2023-02-27T14:05:37;3.50;;;1.33;;
19519;SDS011;9904;52.246;20.898;2023-02-27T14:10:38;5.00;;;1.83;;
19519;SDS011;9904;52.246;20.898;2023-02-27T14:13:55;5.30;;;1.37;;
19519;SDS011;9904;52.246;20.898;2023-02-27T14:16:08;3.20;;;1.37;;
19519;SDS011;9904;52.246;20.898;2023-02-27T14:18:49;4.73;;;1.73;;
19519;SDS011;9904;52.246;20.898;2023-02-27T14:24:21;5.57;;;1.33;;
19519;SDS011;9904;52.246;20.898;2023-02-27T14:26:50;5.00;;;1.50;;
19519;SDS011;9904;52.246;20.898;2023-02-27T14:29:25;3.83;;;1.80;;
19519;SDS011;9904;52.246;20.898;2023-02-27T14:31:57;4.23;;;1.63;;
19519;SDS011;9904;52.246;20.898;2023-02-27T14:34:26;4.40;;;1.73;;
19519;SDS011;9904;52.246;20.898;2023-02-27T14:36:54;4.80;;;1.80;;
19519;SDS011;9904;52.246;20.898;2023-02-27T14:39:26;3.37;;;1.73;;
19519;SDS011;9904;52.246;20.898;2023-02-27T14:44:35;3.77;;;1.60;;
19519;SDS011;9904;52.246;20.898;2023-02-27T14:47:29;3.87;;;1.77;;
19519;SDS011;9904;52.246;20.898;2023-02-27T14:50:04;5.37;;;1.67;;
19519;SDS011;9904;52.246;20.898;2023-02-27T14:52:40;5.53;;;1.60;;
19519;SDS011;9904;52.246;20.898;2023-02-27T14:55:15;4.73;;;1.53;;
19519;SDS011;9904;52.246;20.898;2023-02-27T14:57:58;4.93;;;1.53;;
19519;SDS011;9904;52.246;20.898;2023-02-27T15:00:30;2.73;;;1.50;;
19519;SDS011;9904;52.246;20.898;2023-02-27T15:03:25;5.40;;;1.70;;
19519;SDS011;9904;52.246;20.898;2023-02-27T15:05:57;3.27;;;1.70;;
19519;SDS011;9904;52.246;20.898;2023-02-27T15:08:37;3.23;;;1.70;;
19519;SDS011;9904;52.246;20.898;2023-02-27T15:11:04;4.20;;;1.77;;
19519;SDS011;9904;52.246;20.898;2023-02-27T15:13:33;3.67;;;1.50;;
19519;SDS011;9904;52.246;20.898;2023-02-27T15:18:47;3.10;;;1.40;;
19519;SDS011;9904;52.246;20.898;2023-02-27T15:21:17;5.83;;;1.43;;
19519;SDS011;9904;52.246;20.898;2023-02-27T15:26:25;3.07;;;1.77;;
19519;SDS011;9904;52.246;20.898;2023-02-27T15:28:55;4.50;;;1.70;;
19519;SDS011;9904;52.246;20.898;2023-02-27T15:31:25;5.03;;;1.80;;
19519;SDS011;9904;52.246;20.898;2023-02-27T15:33:56;4.00;;;1.70;;
19519;SDS011;9904;52.246;20.898;2023-02-27T15:36:32;5.37;;;1.80;;
19519;SDS011;9904;52.246;20.898;2023-02-27T15:39:19;3.50;;;1.80;;
19519;SDS011;9904;52.246;20.898;2023-02-27T15:41:49;5.00;;;2.27;;
19519;SDS011;9904;52.246;20.898;2023-02-27T15:44:40;5.07;;;2.07;;
19519;SDS011;9904;52.246;20.898;2023-02-27T15:47:09;6.00;;;2.20;;
19519;SDS011;9904;52.246;20.898;2023-02-27T15:49:38;4.03;;;2.13;;
19519;SDS011;9904;52.246;20.898;2023-02-27T15:54:43;5.73;;;2.37;;
19519;SDS011;9904;52.246;20.898;2023-02-27T15:57:13;6.07;;;2.17;;
19519;SDS011;9904;52.246;20.898;2023-02-27T15:59:40;4.03;;;2.17;;
19519;SDS011;9904;52.246;20.898;2023-02-27T16:02:13;4.40;;;2.10;;
19519;SDS011;9904;52.246;20.898;2023-02-27T16:04:49;4.13;;;1.87;;
19519;SDS011;9904;52.246;20.898;2023-02-27T16:07:18;4.43;;;2.20;;
19519;SDS011;9904;52.246;20.898;2023-02-27T16:09:53;4.37;;;2.13;;
19519;SDS011;9904;52.246;20.898;2023-02-27T16:12:26;3.93;;;1.90;;
19519;SDS011;9904;52.246;20.898;2023-02-27T16:17:53;4.80;;;1.90;;
19519;SDS011;9904;52.246;20.898;2023-02-27T16:22:59;4.50;;;2.00;;
19519;SDS011;9904;52.246;20.898;2023-02-27T16:31:29;5.53;;;2.40;;
19519;SDS011;9904;52.246;20.898;2023-02-27T16:34:22;7.77;;;2.43;;
19519;SDS011;9904;52.246;20.898;2023-02-27T16:37:21;3.97;;;2.20;;
19519;SDS011;9904;52.246;20.898;2023-02-27T16:39:49;8.57;;;2.53;;
19519;SDS011;9904;52.246;20.898;2023-02-27T16:42:17;4.73;;;2.03;;
19519;SDS011;9904;52.246;20.898;2023-02-27T16:44:43;10.93;;;2.27;;
19519;SDS011;9904;52.246;20.898;2023-02-27T16:47:10;4.63;;;2.33;;
19519;SDS011;9904;52.246;20.898;2023-02-27T16:49:37;5.00;;;2.23;;
19519;SDS011;9904;52.246;20.898;2023-02-27T16:52:07;5.97;;;2.30;;
19519;SDS011;9904;52.246;20.898;2023-02-27T16:54:34;7.93;;;3.23;;
19519;SDS011;9904;52.246;20.898;2023-02-27T16:57:02;8.57;;;2.90;;
19519;SDS011;9904;52.246;20.898;2023-02-27T16:59:34;5.23;;;2.30;;
19519;SDS011;9904;52.246;20.898;2023-02-27T17:02:03;5.40;;;2.37;;
19519;SDS011;9904;52.246;20.898;2023-02-27T17:04:31;4.63;;;2.27;;
19519;SDS011;9904;52.246;20.898;2023-02-27T17:06:59;6.90;;;2.93;;
19519;SDS011;9904;52.246;20.898;2023-02-27T17:09:26;9.87;;;3.00;;
19519;SDS011;9904;52.246;20.898;2023-02-27T17:11:55;9.13;;;3.70;;
19519;SDS011;9904;52.246;20.898;2023-02-27T17:14:24;8.40;;;3.20;;
19519;SDS011;9904;52.246;20.898;2023-02-27T17:16:51;8.03;;;3.60;;
19519;SDS011;9904;52.246;20.898;2023-02-27T17:19:18;8.67;;;3.50;;
19519;SDS011;9904;52.246;20.898;2023-02-27T17:21:46;11.57;;;2.90;;
19519;SDS011;9904;52.246;20.898;2023-02-27T17:24:13;8.07;;;3.40;;
19519;SDS011;9904;52.246;20.898;2023-02-27T17:26:40;6.30;;;2.93;;
19519;SDS011;9904;52.246;20.898;2023-02-27T17:29:07;8.20;;;3.70;;
19519;SDS011;9904;52.246;20.898;2023-02-27T17:31:35;8.93;;;3.20;;
19519;SDS011;9904;52.246;20.898;2023-02-27T17:34:02;10.13;;;3.33;;
19519;SDS011;9904;52.246;20.898;2023-02-27T17:36:29;13.33;;;3.30;;
19519;SDS011;9904;52.246;20.898;2023-02-27T17:38:56;5.70;;;3.00;;
19519;SDS011;9904;52.246;20.898;2023-02-27T17:41:25;7.10;;;3.00;;
19519;SDS011;9904;52.246;20.898;2023-02-27T17:43:53;6.20;;;2.83;;
19519;SDS011;9904;52.246;20.898;2023-02-27T17:46:23;7.40;;;2.53;;
19519;SDS011;9904;52.246;20.898;2023-02-27T17:48:51;5.13;;;2.33;;
19519;SDS011;9904;52.246;20.898;2023-02-27T17:51:19;3.80;;;2.10;;
19519;SDS011;9904;52.246;20.898;2023-02-27T17:53:46;7.03;;;2.87;;
19519;SDS011;9904;52.246;20.898;2023-02-27T17:56:13;7.10;;;2.70;;
19519;SDS011;9904;52.246;20.898;2023-02-27T17:58:40;3.63;;;2.13;;
19519;SDS011;9904;52.246;20.898;2023-02-27T18:01:11;6.03;;;2.57;;
19519;SDS011;9904;52.246;20.898;2023-02-27T18:03:40;7.27;;;2.63;;
19519;SDS011;9904;52.246;20.898;2023-02-27T18:06:06;4.50;;;2.40;;
19519;SDS011;9904;52.246;20.898;2023-02-27T18:08:34;7.23;;;2.60;;
19519;SDS011;9904;52.246;20.898;2023-02-27T18:11:00;7.93;;;2.63;;
19519;SDS011;9904;52.246;20.898;2023-02-27T18:13:27;6.37;;;2.30;;
19519;SDS011;9904;52.246;20.898;2023-02-27T18:15:54;6.30;;;2.67;;
19519;SDS011;9904;52.246;20.898;2023-02-27T18:18:22;6.97;;;2.63;;
19519;SDS011;9904;52.246;20.898;2023-02-27T18:20:59;5.47;;;2.43;;
19519;SDS011;9904;52.246;20.898;2023-02-27T18:23:27;7.63;;;3.20;;
19519;SDS011;9904;52.246;20.898;2023-02-27T18:25:54;8.90;;;3.17;;
19519;SDS011;9904;52.246;20.898;2023-02-27T18:28:22;7.33;;;2.63;;
19519;SDS011;9904;52.246;20.898;2023-02-27T18:30:49;8.10;;;3.27;;
19519;SDS011;9904;52.246;20.898;2023-02-27T18:33:16;12.83;;;4.57;;
19519;SDS011;9904;52.246;20.898;2023-02-27T18:35:45;7.13;;;3.00;;
19519;SDS011;9904;52.246;20.898;2023-02-27T18:38:12;4.97;;;2.63;;
19519;SDS011;9904;52.246;20.898;2023-02-27T18:40:39;7.83;;;2.80;;
19519;SDS011;9904;52.246;20.898;2023-02-27T18:43:08;5.17;;;2.53;;
19519;SDS011;9904;52.246;20.898;2023-02-27T18:45:36;8.30;;;3.43;;
19519;SDS011;9904;52.246;20.898;2023-02-27T18:48:03;7.73;;;3.30;;
19519;SDS011;9904;52.246;20.898;2023-02-27T18:50:29;7.33;;;3.07;;
19519;SDS011;9904;52.246;20.898;2023-02-27T18:52:56;6.60;;;3.00;;
19519;SDS011;9904;52.246;20.898;2023-02-27T18:55:24;7.27;;;3.47;;
19519;SDS011;9904;52.246;20.898;2023-02-27T18:57:51;8.03;;;3.47;;
19519;SDS011;9904;52.246;20.898;2023-02-27T19:00:18;5.87;;;3.30;;
19519;SDS011;9904;52.246;20.898;2023-02-27T19:02:49;10.57;;;3.30;;
19519;SDS011;9904;52.246;20.898;2023-02-27T19:05:16;8.93;;;3.73;;
19519;SDS011;9904;52.246;20.898;2023-02-27T19:07:43;9.23;;;3.87;;
19519;SDS011;9904;52.246;20.898;2023-02-27T19:10:10;7.87;;;4.00;;
19519;SDS011;9904;52.246;20.898;2023-02-27T19:12:38;10.17;;;4.20;;
19519;SDS011;9904;52.246;20.898;2023-02-27T19:15:05;6.43;;;3.60;;
19519;SDS011;9904;52.246;20.898;2023-02-27T19:17:34;10.67;;;4.20;;
19519;SDS011;9904;52.246;20.898;2023-02-27T19:20:01;7.57;;;3.77;;
19519;SDS011;9904;52.246;20.898;2023-02-27T19:22:27;10.40;;;4.23;;
19519;SDS011;9904;52.246;20.898;2023-02-27T19:24:56;15.20;;;5.70;;
19519;SDS011;9904;52.246;20.898;2023-02-27T19:27:25;8.80;;;4.20;;
19519;SDS011;9904;52.246;20.898;2023-02-27T19:29:52;9.77;;;4.03;;
19519;SDS011;9904;52.246;20.898;2023-02-27T19:32:19;9.03;;;3.83;;
19519;SDS011;9904;52.246;20.898;2023-02-27T19:34:46;7.37;;;3.70;;
19519;SDS011;9904;52.246;20.898;2023-02-27T19:37:13;9.07;;;3.63;;
19519;SDS011;9904;52.246;20.898;2023-02-27T19:39:41;7.73;;;3.50;;
19519;SDS011;9904;52.246;20.898;2023-02-27T19:42:08;7.57;;;3.07;;
19519;SDS011;9904;52.246;20.898;2023-02-27T19:44:36;12.53;;;4.07;;
19519;SDS011;9904;52.246;20.898;2023-02-27T19:47:02;12.27;;;3.63;;
19519;SDS011;9904;52.246;20.898;2023-02-27T19:49:29;7.87;;;3.83;;
19519;SDS011;9904;52.246;20.898;2023-02-27T19:51:56;10.27;;;3.70;;
19519;SDS011;9904;52.246;20.898;2023-02-27T19:54:24;11.50;;;3.87;;
19519;SDS011;9904;52.246;20.898;2023-02-27T19:56:50;9.30;;;3.73;;
19519;SDS011;9904;52.246;20.898;2023-02-27T19:59:19;12.43;;;3.10;;
19519;SDS011;9904;52.246;20.898;2023-02-27T20:01:49;8.43;;;3.17;;
19519;SDS011;9904;52.246;20.898;2023-02-27T20:04:16;7.53;;;3.87;;
19519;SDS011;9904;52.246;20.898;2023-02-27T20:06:46;10.70;;;4.07;;
19519;SDS011;9904;52.246;20.898;2023-02-27T20:09:15;7.33;;;3.83;;
19519;SDS011;9904;52.246;20.898;2023-02-27T20:11:46;9.33;;;3.70;;